Latest Weather Observations for Kapooka (Defence)

IDN60801

Issued at 8:52 pm EST Wednesday 5 August 2020 (issued every 10 minutes, with the page automatically refreshed every 10 minutes)

About weather observations | Map of weather stations | Latest weather observations for NSW | Other Formats
Station Details ID: 074272 Name: KAPOOKA (DEFENCE) Lat: -35.13 Lon: 147.25 Height: 187.0 m
Data from the previous 72 hours. | See also: Recent months at Kapooka (Defence)
Date/Time
EST
Temp
°C
App
Temp
°C
Dew
Point
°C
Rel
Hum
%
Delta-T
°C
Wind Press
QNH
hPa
Press
MSL
hPa
Rain since
9am
mm
Dir  Spd
km/h
Gust
km/h
Spd
kts
Gust
kts
05/08:30pm 2.7 0.0 0.1 83 1.0 S 4 6 2 3 - - 0.0
05/08:00pm 3.1 0.1 0.8 85 0.9 S 6 7 3 4 - - 0.0
05/07:30pm 4.2 2.5 1.7 84 1.0 CALM 0 0 0 0 - - 0.0
05/07:00pm 2.6 0.6 0.2 84 0.9 CALM 0 0 0 0 - - 0.0
05/06:30pm 4.9 2.1 1.9 81 1.2 W 6 9 3 5 - - 0.0
05/06:00pm 4.2 2.3 0.7 78 1.4 CALM 0 6 0 3 - - 0.0
05/05:30pm 7.4 4.6 2.1 69 2.2 W 6 11 3 6 - - 0.0
05/05:00pm 8.9 5.6 2.7 65 2.7 WSW 9 15 5 8 - - 0.0
05/04:30pm 9.9 5.0 2.0 58 3.4 WSW 17 26 9 14 - - 0.0
05/04:00pm 10.8 6.8 2.9 58 3.5 WSW 13 20 7 11 - - 0.0
05/03:30pm 10.8 6.7 2.1 55 3.7 WSW 13 22 7 12 - - 0.0
05/03:00pm 11.2 7.3 3.3 58 3.5 WSW 13 24 7 13 - - 0.0
05/02:30pm 9.5 5.0 2.1 60 3.1 WSW 15 28 8 15 - - 0.0
05/02:00pm 10.3 6.5 3.8 64 2.9 WSW 13 24 7 13 - - 0.0
05/01:30pm 10.4 6.6 3.7 63 3.0 WSW 13 20 7 11 - - 0.0
05/01:00pm 9.8 5.7 4.4 69 2.4 SW 15 22 8 12 - - 0.0
05/12:30pm 9.1 5.3 3.9 70 2.3 WSW 13 22 7 12 - - 0.0
05/12:00pm 8.6 4.4 3.6 71 2.2 WSW 15 28 8 15 - - 0.0
05/11:30am 7.5 2.9 3.7 77 1.6 WSW 17 24 9 13 - - 0.0
05/11:00am 6.6 3.5 3.6 81 1.3 SW 9 15 5 8 - - 0.0
05/10:30am 5.9 2.4 3.7 86 0.9 SW 11 17 6 9 - - 0.0
05/10:00am 5.3 3.0 2.8 84 1.0 W 4 7 2 4 - - 0.0
05/09:30am 3.5 1.0 1.5 87 0.8 NNW 4 7 2 4 - - 0.0
05/09:00am 2.0 -1.0 0.5 90 0.6 N 6 6 3 3 - - 0.0
05/08:30am 1.0 -1.7 0.3 95 0.3 NNE 4 6 2 3 - - 0.0
05/08:00am -0.3 -3.2 -0.9 96 0.2 NNW 4 7 2 4 - - 0.0
05/07:30am -1.1 -4.5 -1.7 96 0.2 NNE 6 7 3 4 - - 0.0
05/07:00am -0.9 -3.1 -1.6 95 0.2 CALM 0 0 0 0 - - 0.0
05/06:30am 0.3 -2.1 -0.5 94 0.3 WSW 2 6 1 3 - - 0.0
05/06:00am -0.1 -2.9 -0.5 97 0.1 ENE 4 7 2 4 - - 0.0
05/05:30am -0.1 -2.2 -0.7 96 0.2 CALM 0 0 0 0 - - 0.0
05/05:00am 0.1 -2.7 -0.6 95 0.3 NW 4 7 2 4 - - 0.0
05/04:30am 0.6 -1.4 0.2 97 0.1 CALM 0 6 0 3 - - 0.0
05/04:00am 0.3 -1.7 -0.1 97 0.1 CALM 0 4 0 2 - - 0.0
05/03:30am -0.8 -3.0 -1.5 95 0.2 CALM 0 4 0 2 - - 0.0
05/03:00am -0.7 -3.3 -1.7 93 0.3 NW 2 6 1 3 - - 0.0
05/02:30am -0.1 -3.0 -1.1 93 0.4 NE 4 6 2 3 - - 0.0
05/02:00am 0.9 -1.1 -0.2 92 0.4 CALM 0 0 0 0 - - 0.0
05/01:30am 0.8 -1.2 -0.3 92 0.4 CALM 0 0 0 0 - - 0.0
05/01:00am 0.6 -2.7 -1.0 89 0.6 NNE 6 9 3 5 - - 0.0
05/12:30am 0.7 -2.5 -0.6 91 0.5 NE 6 9 3 5 - - 0.0
05/12:00am -0.2 -2.4 -1.6 90 0.5 CALM 0 0 0 0 - - 0.0
 
Date/Time
EST
Temp
°C
App
Temp
°C
Dew
Point
°C
Rel
Hum
%
Delta-T
°C
Wind Press
QNH
hPa
Press
MSL
hPa
Rain since
9am
mm
Dir  Spd
km/h
Gust
km/h
Spd
kts
Gust
kts
04/11:30pm 2.1 0.1 -0.3 84 0.9 CALM 0 0 0 0 - - 0.0
04/11:00pm 2.3 -0.1 -0.4 82 1.0 NNW 2 6 1 3 - - 0.0
04/10:30pm 0.7 -2.6 -1.1 88 0.6 NNE 6 6 3 3 - - 0.0
04/10:00pm 1.8 -1.6 -0.6 84 0.9 NNE 7 9 4 5 - - 0.0
04/09:30pm 1.9 -0.9 -0.5 84 0.9 NNE 4 6 2 3 - - 0.0
04/09:00pm 2.0 -0.7 0.1 87 0.7 NNE 4 4 2 2 - - 0.0
04/08:30pm 2.0 -0.7 0.1 87 0.7 N 4 6 2 3 - - 0.0
04/08:00pm 1.5 -0.6 -0.9 84 0.9 CALM 0 2 0 1 - - 0.0
04/07:30pm 4.3 2.3 0.1 74 1.6 CALM 0 0 0 0 - - 0.0
04/07:00pm 4.1 2.2 0.4 77 1.4 CALM 0 0 0 0 - - 0.0
04/06:30pm 3.3 1.4 0.4 81 1.1 CALM 0 0 0 0 - - 0.0
04/06:00pm 2.6 0.5 -1.0 77 1.3 CALM 0 0 0 0 - - 0.0
04/05:30pm 6.3 4.0 0.2 65 2.4 WSW 2 4 1 2 - - 0.0
04/05:00pm 7.8 4.2 0.3 59 3.0 SW 9 17 5 9 - - 0.0
04/04:30pm 9.0 4.7 0.7 56 3.4 WSW 13 20 7 11 - - 0.0
04/04:00pm 9.6 4.7 -0.3 50 4.0 WSW 15 30 8 16 - - 0.0
04/03:30pm 9.7 4.3 -1.3 46 4.3 WSW 17 26 9 14 - - 0.0
04/03:00pm 9.9 4.1 -1.5 45 4.5 WSW 19 32 10 17 - - 0.0
04/02:30pm 10.3 4.9 -1.4 44 4.6 WSW 17 33 9 18 - - 0.0
04/02:00pm 10.1 5.3 -2.9 40 4.9 WSW 13 28 7 15 - - 0.0
04/01:30pm 10.0 4.5 -2.0 43 4.7 WSW 17 26 9 14 - - 0.0
04/01:00pm 9.8 4.5 -0.4 49 4.1 WSW 17 26 9 14 - - 0.0
04/12:30pm 9.0 4.5 1.9 61 3.0 WSW 15 26 8 14 - - 0.0
04/12:00pm 10.7 6.5 4.0 63 3.0 W 15 24 8 13 - - 0.0
04/11:30am 10.4 6.3 4.3 66 2.7 W 15 26 8 14 - - 0.0
04/11:00am 10.0 6.3 4.4 68 2.5 W 13 24 7 13 - - 0.0
04/10:30am 9.0 4.3 3.4 68 2.4 SW 17 28 9 15 - - 0.0
04/10:00am 8.4 4.2 3.7 72 2.1 SW 15 22 8 12 - - 0.0
04/09:30am 7.7 4.3 4.1 78 1.6 WSW 11 20 6 11 - - 0.0
04/09:00am 7.5 4.2 4.5 81 1.3 WSW 11 19 6 10 - - 0.0
04/08:30am 7.5 3.9 4.8 83 1.2 WSW 13 20 7 11 - - 0.0
04/08:00am 7.5 4.9 6.0 90 0.7 SW 9 15 5 8 - - 0.0
04/07:30am 7.5 4.5 5.8 89 0.8 SW 11 17 6 9 - - 0.0
04/07:00am 6.9 5.4 5.2 89 0.8 W 2 6 1 3 - - 0.0
04/06:30am 7.0 6.0 5.8 92 0.5 CALM 0 0 0 0 - - 0.0
04/06:00am 6.7 5.7 5.7 93 0.5 CALM 0 0 0 0 - - 0.0
04/05:30am 7.0 5.7 6.1 94 0.4 NNE 2 4 1 2 - - 0.0
04/05:00am 6.8 4.7 5.7 93 0.5 NNE 6 7 3 4 - - 0.0
04/04:30am 7.7 5.5 6.3 91 0.6 NNE 7 9 4 5 - - 0.0
04/04:00am 7.3 6.4 6.1 92 0.5 CALM 0 0 0 0 - - 0.0
04/03:30am 8.3 6.6 6.1 86 1.0 N 4 6 2 3 - - 0.0
04/03:00am 8.8 7.9 6.1 83 1.2 CALM 0 0 0 0 - - 0.0
04/02:30am 9.2 8.0 6.5 83 1.3 NW 2 6 1 3 - - 0.0
04/02:00am 9.8 7.8 6.3 79 1.6 WNW 6 13 3 7 - - 0.0
04/01:30am 10.3 8.4 6.6 78 1.8 N 6 9 3 5 - - 0.0
04/01:00am 10.4 7.5 6.7 78 1.8 NNE 11 15 6 8 - - 0.0
04/12:30am 11.0 7.0 6.7 75 2.1 NNE 17 24 9 13 - - 0.0
04/12:00am 10.5 7.4 7.4 81 1.5 NNE 13 19 7 10 - - 0.0
 
Date/Time
EST
Temp
°C
App
Temp
°C
Dew
Point
°C
Rel
Hum
%
Delta-T
°C
Wind Press
QNH
hPa
Press
MSL
hPa
Rain since
9am
mm
Dir  Spd
km/h
Gust
km/h
Spd
kts
Gust
kts
03/11:30pm 10.6 7.6 7.5 81 1.5 NNE 13 19 7 10 - - 0.0
03/11:00pm 10.9 7.9 7.8 81 1.5 NNE 13 17 7 9 - - 0.0
03/10:30pm 10.8 7.9 8.0 83 1.4 NNE 13 17 7 9 - - 0.0
03/10:00pm 11.0 8.1 8.2 83 1.4 NE 13 20 7 11 - - 0.0
03/09:30pm 10.7 8.2 8.1 84 1.3 NNE 11 15 6 8 - - 0.0
03/09:00pm 11.2 8.4 8.4 83 1.4 NNE 13 17 7 9 - - 0.0
03/08:30pm 11.1 8.7 8.7 85 1.2 NNE 11 15 6 8 - - 0.0
03/08:00pm 11.2 8.5 9.1 87 1.1 NE 13 19 7 10 - - 0.0
03/07:30pm 11.6 9.0 9.5 87 1.1 NNE 13 17 7 9 - - 0.0
03/07:00pm 11.7 9.6 9.8 88 1.0 NE 11 15 6 8 - - 0.0
03/06:30pm 10.9 9.5 8.7 86 1.1 NNE 6 7 3 4 - - 0.0
03/06:00pm 12.2 9.9 9.0 81 1.6 NE 11 13 6 7 - - 0.0
03/05:30pm 12.7 10.8 9.2 79 1.8 NE 9 11 5 6 - - 0.0
03/05:00pm 13.4 12.0 9.6 78 2.0 NE 7 9 4 5 - - 0.0
03/04:30pm 14.2 13.1 9.8 75 2.3 N 6 7 3 4 - - 0.0
03/04:00pm 15.8 14.5 9.9 68 3.1 N 7 11 4 6 - - 0.0
03/03:30pm 16.1 14.6 9.1 63 3.6 N 7 11 4 6 - - 0.0
03/03:00pm 16.3 14.8 9.0 62 3.8 N 7 13 4 7 - - 0.0
03/02:30pm 16.0 13.9 8.2 60 4.0 NNW 9 15 5 8 - - 0.0
03/02:00pm 16.3 14.9 9.7 65 3.5 N 7 13 4 7 - - 0.0
03/01:30pm 15.6 13.5 9.7 68 3.1 NNE 11 17 6 9 - - 0.0
03/01:00pm 15.0 13.0 10.0 72 2.6 NNE 11 17 6 9 - - 0.0
03/12:30pm 14.2 11.7 9.8 75 2.3 NNE 13 17 7 9 - - 0.0
03/12:00pm 12.9 10.5 8.8 76 2.1 NNE 11 19 6 10 - - 0.0
03/11:30am 12.5 10.0 8.2 75 2.1 NE 11 19 6 10 - - 0.0
03/11:00am 12.0 9.3 7.3 73 2.3 NE 11 17 6 9 - - 0.0
03/10:30am 11.1 8.4 7.2 77 1.9 NE 11 19 6 10 - - 0.0
03/10:00am 10.5 8.5 7.2 80 1.6 NE 7 11 4 6 - - 0.0
03/09:30am 8.5 7.4 8.5 100 0.0 N 4 9 2 5 - - 0.0
03/09:00am 6.1 4.4 6.1 100 0.0 WSW 4 4 2 2 - - 0.0
03/08:30am 3.8 2.4 3.8 100 0.0 CALM 0 0 0 0 - - 0.0
03/08:00am 1.8 0.1 1.8 100 0.0 CALM 0 0 0 0 - - 0.0
03/07:30am 1.5 -0.3 1.5 100 0.0 CALM 0 0 0 0 - - 0.0
03/07:00am 1.8 0.1 1.8 100 0.0 CALM 0 0 0 0 - - 0.0
03/06:30am 1.6 -0.1 1.6 100 0.0 CALM 0 0 0 0 - - 0.0
03/06:00am 2.0 0.3 2.0 100 0.0 CALM 0 0 0 0 - - 0.0
03/05:30am 1.2 -1.7 1.2 100 0.0 WSW 6 7 3 4 - - 0.0
03/05:00am 1.4 -0.4 1.4 100 0.0 CALM 0 0 0 0 - - 0.0
03/04:30am 1.1 -0.7 1.1 100 0.0 CALM 0 2 0 1 - - 0.0
03/04:00am 1.0 -0.8 1.0 100 0.0 CALM 0 0 0 0 - - 0.0
03/03:30am 1.6 -0.1 1.6 100 0.0 CALM 0 0 0 0 - - 0.0
03/03:00am 1.8 0.1 1.8 100 0.0 CALM 0 0 0 0 - - 0.0
03/02:30am 0.9 -0.9 0.9 100 0.0 CALM 0 0 0 0 - - 0.0
03/02:00am 0.8 -1.1 0.8 100 0.0 CALM 0 0 0 0 - - 0.0
03/01:30am 0.8 -1.1 0.8 100 0.0 CALM 0 0 0 0 - - 0.0
03/01:00am 1.7 0.0 1.7 100 0.0 CALM 0 0 0 0 - - 0.0
03/12:30am 1.3 -0.5 1.3 100 0.0 CALM 0 0 0 0 - - 0.0
03/12:00am 1.3 -0.5 1.2 99 0.0 CALM 0 0 0 0 - - 0.0
 
Date/Time
EST
Temp
°C
App
Temp
°C
Dew
Point
°C
Rel
Hum
%
Delta-T
°C
Wind Press
QNH
hPa
Press
MSL
hPa
Rain since
9am
mm
Dir  Spd
km/h
Gust
km/h
Spd
kts
Gust
kts
02/11:30pm 1.7 0.0 1.6 99 0.0 CALM 0 0 0 0 - - 0.0
02/11:00pm 2.5 0.9 2.4 99 0.0 CALM 0 0 0 0 - - 0.0
02/10:30pm 2.3 0.7 2.2 99 0.0 CALM 0 0 0 0 - - 0.0
02/10:00pm 2.6 1.0 2.3 98 0.1 CALM 0 0 0 0 - - 0.0
02/09:30pm 3.0 1.1 2.6 97 0.2 SSE 2 4 1 2 - - 0.0
02/09:00pm 3.9 1.2 3.5 97 0.2 S 7 9 4 5 - - 0.0

Other formats

Comma delimited format used in spreadsheet applications
http://www.bom.gov.au/fwo/IDN60801/IDN60801.94944.axf

JavaScript Object Notation format (JSON) in row-major order
http://www.bom.gov.au/fwo/IDN60801/IDN60801.94944.json

Data quality

Most of these data are generated automatically and are frequently updated. Quality checks on data are not normally performed. It is possible for incorrect values to appear. Refer to information at About Latest Weather Observations and please check the disclaimer before using these data.